Anthony, Idaho
Current Conditions -  °F | °C
As of 4:30 AM on Friday 31 Oct 2014 (Local Time) from KWYS Reporting Station
Clear Clear  
Wind Chill: 25°   Ceiling: Unl
Heat Index: 25°   Visibility: 10mi
Dew Point: 25°   Wind: 0mph
Humidity: 100%   Direction: NA
Pressure: 30.14"   Gusts: NA
Location:  44.2887°N, 111.507°W
Report Text: KWYS 311030Z AUTO 00000KT 10SM CLR M04/M04 A3014 RMK AO2
Loading
Personal Weather Stations






























Interactive Weather Map
Tropical Storm Tracking
New forecast layout! Learn more

10-Day Weather Forecast

Advertisements
Track Severe Weather on mobile